RJOF(METAR)
10/21 04:00
METAR RJOF 201900Z 36005KT 9999 BKN/// 11/09 Q1022 RMK A3018=
戻る
トップページへ戻る
IMOC Co,.Ltd.